sensor_id;sensor_type;location;lat;lon;timestamp;P1;durP1;ratioP1;P2;durP2;ratioP2
43706;SDS011;61348;53.392;-6.248;2022-08-19T00:00:05;17.45;;;2.47;;
43706;SDS011;61348;53.392;-6.248;2022-08-19T00:02:35;14.93;;;2.90;;
43706;SDS011;61348;53.392;-6.248;2022-08-19T00:05:03;11.88;;;4.05;;
43706;SDS011;61348;53.392;-6.248;2022-08-19T00:07:30;17.23;;;3.40;;
43706;SDS011;61348;53.392;-6.248;2022-08-19T00:09:57;15.52;;;3.38;;
43706;SDS011;61348;53.392;-6.248;2022-08-19T00:12:23;16.13;;;3.53;;
43706;SDS011;61348;53.392;-6.248;2022-08-19T00:14:50;16.80;;;3.28;;
43706;SDS011;61348;53.392;-6.248;2022-08-19T00:17:19;12.85;;;2.78;;
43706;SDS011;61348;53.392;-6.248;2022-08-19T00:19:46;18.40;;;3.00;;
43706;SDS011;61348;53.392;-6.248;2022-08-19T00:22:13;17.38;;;3.10;;
43706;SDS011;61348;53.392;-6.248;2022-08-19T00:24:40;12.00;;;3.38;;
43706;SDS011;61348;53.392;-6.248;2022-08-19T00:27:16;9.77;;;2.78;;
43706;SDS011;61348;53.392;-6.248;2022-08-19T00:29:52;14.63;;;2.83;;
43706;SDS011;61348;53.392;-6.248;2022-08-19T00:32:19;14.90;;;3.15;;
43706;SDS011;61348;53.392;-6.248;2022-08-19T00:34:46;10.98;;;3.65;;
43706;SDS011;61348;53.392;-6.248;2022-08-19T00:37:13;21.13;;;2.88;;
43706;SDS011;61348;53.392;-6.248;2022-08-19T00:39:40;16.15;;;2.63;;
43706;SDS011;61348;53.392;-6.248;2022-08-19T00:42:07;13.27;;;2.65;;
43706;SDS011;61348;53.392;-6.248;2022-08-19T00:44:34;13.75;;;3.92;;
43706;SDS011;61348;53.392;-6.248;2022-08-19T00:47:01;14.70;;;3.67;;
43706;SDS011;61348;53.392;-6.248;2022-08-19T00:49:35;12.07;;;2.78;;
43706;SDS011;61348;53.392;-6.248;2022-08-19T00:52:27;20.67;;;3.53;;
43706;SDS011;61348;53.392;-6.248;2022-08-19T00:55:00;18.10;;;3.13;;
43706;SDS011;61348;53.392;-6.248;2022-08-19T00:57:36;14.65;;;2.83;;
43706;SDS011;61348;53.392;-6.248;2022-08-19T01:00:08;19.23;;;3.70;;
43706;SDS011;61348;53.392;-6.248;2022-08-19T01:02:38;11.77;;;3.05;;
43706;SDS011;61348;53.392;-6.248;2022-08-19T01:05:08;17.15;;;3.90;;
43706;SDS011;61348;53.392;-6.248;2022-08-19T01:07:39;9.43;;;2.20;;
43706;SDS011;61348;53.392;-6.248;2022-08-19T01:10:13;16.75;;;4.45;;
43706;SDS011;61348;53.392;-6.248;2022-08-19T01:12:42;14.15;;;4.05;;
43706;SDS011;61348;53.392;-6.248;2022-08-19T01:15:10;12.75;;;2.40;;
43706;SDS011;61348;53.392;-6.248;2022-08-19T01:17:40;11.68;;;3.58;;
43706;SDS011;61348;53.392;-6.248;2022-08-19T01:20:14;18.40;;;3.17;;
43706;SDS011;61348;53.392;-6.248;2022-08-19T01:22:44;16.55;;;3.40;;
43706;SDS011;61348;53.392;-6.248;2022-08-19T01:25:17;19.63;;;4.78;;
43706;SDS011;61348;53.392;-6.248;2022-08-19T01:27:50;20.83;;;4.55;;
43706;SDS011;61348;53.392;-6.248;2022-08-19T01:30:21;21.67;;;4.40;;
43706;SDS011;61348;53.392;-6.248;2022-08-19T01:32:51;15.75;;;2.83;;
43706;SDS011;61348;53.392;-6.248;2022-08-19T01:35:20;20.42;;;4.45;;
43706;SDS011;61348;53.392;-6.248;2022-08-19T01:37:51;18.83;;;4.22;;
43706;SDS011;61348;53.392;-6.248;2022-08-19T01:40:22;15.45;;;3.33;;
43706;SDS011;61348;53.392;-6.248;2022-08-19T01:42:51;11.88;;;3.28;;
43706;SDS011;61348;53.392;-6.248;2022-08-19T01:45:20;15.15;;;2.97;;
43706;SDS011;61348;53.392;-6.248;2022-08-19T01:47:49;17.40;;;3.35;;
43706;SDS011;61348;53.392;-6.248;2022-08-19T01:50:27;18.40;;;3.40;;
43706;SDS011;61348;53.392;-6.248;2022-08-19T01:52:54;21.83;;;4.55;;
43706;SDS011;61348;53.392;-6.248;2022-08-19T01:55:32;18.88;;;3.33;;
43706;SDS011;61348;53.392;-6.248;2022-08-19T01:58:00;22.38;;;4.20;;
43706;SDS011;61348;53.392;-6.248;2022-08-19T02:00:29;15.57;;;3.35;;
43706;SDS011;61348;53.392;-6.248;2022-08-19T02:02:58;30.95;;;6.75;;
43706;SDS011;61348;53.392;-6.248;2022-08-19T02:05:27;15.45;;;3.00;;
43706;SDS011;61348;53.392;-6.248;2022-08-19T02:07:56;14.32;;;4.28;;
43706;SDS011;61348;53.392;-6.248;2022-08-19T02:10:23;19.70;;;4.07;;
43706;SDS011;61348;53.392;-6.248;2022-08-19T02:12:50;17.27;;;4.07;;
43706;SDS011;61348;53.392;-6.248;2022-08-19T02:15:18;13.30;;;3.10;;
43706;SDS011;61348;53.392;-6.248;2022-08-19T02:17:46;24.92;;;6.03;;
43706;SDS011;61348;53.392;-6.248;2022-08-19T02:20:14;17.55;;;4.15;;
43706;SDS011;61348;53.392;-6.248;2022-08-19T02:22:41;24.77;;;3.50;;
43706;SDS011;61348;53.392;-6.248;2022-08-19T02:25:10;23.48;;;4.13;;
43706;SDS011;61348;53.392;-6.248;2022-08-19T02:27:38;12.60;;;2.70;;
43706;SDS011;61348;53.392;-6.248;2022-08-19T02:30:07;16.13;;;3.30;;
43706;SDS011;61348;53.392;-6.248;2022-08-19T02:32:39;19.38;;;2.85;;
43706;SDS011;61348;53.392;-6.248;2022-08-19T02:35:10;26.20;;;4.35;;
43706;SDS011;61348;53.392;-6.248;2022-08-19T02:37:39;21.20;;;4.20;;
43706;SDS011;61348;53.392;-6.248;2022-08-19T02:40:25;26.20;;;4.00;;
43706;SDS011;61348;53.392;-6.248;2022-08-19T02:42:52;20.17;;;4.72;;
43706;SDS011;61348;53.392;-6.248;2022-08-19T02:45:20;23.15;;;4.50;;
43706;SDS011;61348;53.392;-6.248;2022-08-19T02:47:46;15.40;;;2.70;;
43706;SDS011;61348;53.392;-6.248;2022-08-19T02:50:13;16.42;;;3.90;;
43706;SDS011;61348;53.392;-6.248;2022-08-19T02:52:40;19.05;;;3.92;;
43706;SDS011;61348;53.392;-6.248;2022-08-19T02:55:07;9.82;;;2.90;;
43706;SDS011;61348;53.392;-6.248;2022-08-19T02:57:35;16.65;;;2.78;;
43706;SDS011;61348;53.392;-6.248;2022-08-19T03:00:04;20.38;;;3.13;;
43706;SDS011;61348;53.392;-6.248;2022-08-19T03:02:33;17.50;;;3.08;;
43706;SDS011;61348;53.392;-6.248;2022-08-19T03:05:02;18.35;;;2.78;;
43706;SDS011;61348;53.392;-6.248;2022-08-19T03:07:29;13.48;;;3.35;;
43706;SDS011;61348;53.392;-6.248;2022-08-19T03:09:56;17.65;;;3.72;;
43706;SDS011;61348;53.392;-6.248;2022-08-19T03:12:23;12.75;;;2.78;;
43706;SDS011;61348;53.392;-6.248;2022-08-19T03:14:50;19.10;;;4.72;;
43706;SDS011;61348;53.392;-6.248;2022-08-19T03:17:18;16.60;;;3.47;;
43706;SDS011;61348;53.392;-6.248;2022-08-19T03:19:45;11.20;;;2.38;;
43706;SDS011;61348;53.392;-6.248;2022-08-19T03:22:12;13.65;;;3.05;;
43706;SDS011;61348;53.392;-6.248;2022-08-19T03:24:39;19.35;;;4.15;;
43706;SDS011;61348;53.392;-6.248;2022-08-19T03:27:06;16.75;;;3.35;;
43706;SDS011;61348;53.392;-6.248;2022-08-19T03:29:33;14.82;;;2.97;;
43706;SDS011;61348;53.392;-6.248;2022-08-19T03:32:09;16.70;;;2.38;;
43706;SDS011;61348;53.392;-6.248;2022-08-19T03:34:56;8.95;;;2.80;;
43706;SDS011;61348;53.392;-6.248;2022-08-19T03:37:23;11.57;;;3.03;;
43706;SDS011;61348;53.392;-6.248;2022-08-19T03:39:51;15.98;;;2.08;;
43706;SDS011;61348;53.392;-6.248;2022-08-19T03:42:17;11.45;;;2.90;;
43706;SDS011;61348;53.392;-6.248;2022-08-19T03:44:58;16.35;;;2.90;;
43706;SDS011;61348;53.392;-6.248;2022-08-19T03:47:25;14.27;;;2.40;;
43706;SDS011;61348;53.392;-6.248;2022-08-19T03:49:52;13.05;;;2.72;;
43706;SDS011;61348;53.392;-6.248;2022-08-19T03:52:19;13.07;;;2.10;;
43706;SDS011;61348;53.392;-6.248;2022-08-19T03:54:45;11.43;;;1.98;;
43706;SDS011;61348;53.392;-6.248;2022-08-19T03:57:12;17.42;;;3.28;;
43706;SDS011;61348;53.392;-6.248;2022-08-19T03:59:39;12.18;;;2.33;;
43706;SDS011;61348;53.392;-6.248;2022-08-19T04:02:08;16.02;;;2.10;;
43706;SDS011;61348;53.392;-6.248;2022-08-19T04:04:38;8.88;;;1.70;;
43706;SDS011;61348;53.392;-6.248;2022-08-19T04:07:06;7.35;;;1.75;;
43706;SDS011;61348;53.392;-6.248;2022-08-19T04:09:34;11.63;;;2.03;;
43706;SDS011;61348;53.392;-6.248;2022-08-19T04:12:03;9.88;;;2.35;;
43706;SDS011;61348;53.392;-6.248;2022-08-19T04:14:32;13.32;;;2.67;;
43706;SDS011;61348;53.392;-6.248;2022-08-19T04:17:01;14.15;;;2.03;;
43706;SDS011;61348;53.392;-6.248;2022-08-19T04:19:32;10.07;;;2.67;;
43706;SDS011;61348;53.392;-6.248;2022-08-19T04:22:01;36.40;;;4.30;;
43706;SDS011;61348;53.392;-6.248;2022-08-19T04:24:28;10.95;;;2.33;;
43706;SDS011;61348;53.392;-6.248;2022-08-19T04:26:54;12.30;;;3.28;;
43706;SDS011;61348;53.392;-6.248;2022-08-19T04:29:23;11.10;;;1.95;;
43706;SDS011;61348;53.392;-6.248;2022-08-19T04:31:52;9.60;;;2.38;;
43706;SDS011;61348;53.392;-6.248;2022-08-19T04:34:21;13.43;;;2.25;;
43706;SDS011;61348;53.392;-6.248;2022-08-19T04:36:51;19.17;;;2.40;;
43706;SDS011;61348;53.392;-6.248;2022-08-19T04:39:20;10.77;;;2.30;;
43706;SDS011;61348;53.392;-6.248;2022-08-19T04:41:49;14.30;;;2.22;;
43706;SDS011;61348;53.392;-6.248;2022-08-19T04:44:35;7.80;;;2.35;;
43706;SDS011;61348;53.392;-6.248;2022-08-19T04:47:11;10.93;;;2.17;;
43706;SDS011;61348;53.392;-6.248;2022-08-19T04:49:38;12.73;;;1.73;;
43706;SDS011;61348;53.392;-6.248;2022-08-19T04:52:05;9.23;;;3.00;;
43706;SDS011;61348;53.392;-6.248;2022-08-19T04:54:32;10.43;;;2.15;;
43706;SDS011;61348;53.392;-6.248;2022-08-19T04:57:03;9.88;;;1.80;;
43706;SDS011;61348;53.392;-6.248;2022-08-19T04:59:33;7.90;;;1.45;;
43706;SDS011;61348;53.392;-6.248;2022-08-19T05:02:02;20.85;;;3.42;;
43706;SDS011;61348;53.392;-6.248;2022-08-19T05:04:30;14.93;;;2.10;;
43706;SDS011;61348;53.392;-6.248;2022-08-19T05:06:58;11.73;;;2.20;;
43706;SDS011;61348;53.392;-6.248;2022-08-19T05:09:29;8.43;;;2.78;;
43706;SDS011;61348;53.392;-6.248;2022-08-19T05:12:16;12.15;;;1.92;;
43706;SDS011;61348;53.392;-6.248;2022-08-19T05:14:44;22.60;;;3.22;;
43706;SDS011;61348;53.392;-6.248;2022-08-19T05:17:14;15.52;;;2.38;;
43706;SDS011;61348;53.392;-6.248;2022-08-19T05:20:01;13.52;;;2.13;;
43706;SDS011;61348;53.392;-6.248;2022-08-19T05:22:48;8.43;;;2.22;;
43706;SDS011;61348;53.392;-6.248;2022-08-19T05:25:16;8.45;;;2.00;;
43706;SDS011;61348;53.392;-6.248;2022-08-19T05:27:45;11.00;;;2.38;;
43706;SDS011;61348;53.392;-6.248;2022-08-19T05:30:12;6.53;;;1.67;;
43706;SDS011;61348;53.392;-6.248;2022-08-19T05:32:41;13.48;;;1.98;;
43706;SDS011;61348;53.392;-6.248;2022-08-19T05:35:08;10.30;;;2.00;;
43706;SDS011;61348;53.392;-6.248;2022-08-19T05:37:36;10.88;;;2.30;;
43706;SDS011;61348;53.392;-6.248;2022-08-19T05:40:03;6.53;;;1.70;;
43706;SDS011;61348;53.392;-6.248;2022-08-19T05:42:31;10.65;;;3.53;;
43706;SDS011;61348;53.392;-6.248;2022-08-19T05:44:58;9.95;;;2.85;;
43706;SDS011;61348;53.392;-6.248;2022-08-19T05:47:24;10.48;;;2.53;;
43706;SDS011;61348;53.392;-6.248;2022-08-19T05:49:52;8.88;;;1.52;;
43706;SDS011;61348;53.392;-6.248;2022-08-19T05:52:18;9.63;;;1.52;;
43706;SDS011;61348;53.392;-6.248;2022-08-19T05:54:51;12.82;;;2.00;;
43706;SDS011;61348;53.392;-6.248;2022-08-19T05:57:21;10.50;;;1.75;;
43706;SDS011;61348;53.392;-6.248;2022-08-19T05:59:50;11.32;;;1.50;;
43706;SDS011;61348;53.392;-6.248;2022-08-19T06:02:24;6.68;;;1.52;;
43706;SDS011;61348;53.392;-6.248;2022-08-19T06:04:54;12.90;;;1.50;;
43706;SDS011;61348;53.392;-6.248;2022-08-19T06:07:21;15.80;;;3.65;;
43706;SDS011;61348;53.392;-6.248;2022-08-19T06:09:48;9.30;;;3.17;;
43706;SDS011;61348;53.392;-6.248;2022-08-19T06:12:29;7.53;;;1.58;;
43706;SDS011;61348;53.392;-6.248;2022-08-19T06:15:02;13.30;;;1.60;;
43706;SDS011;61348;53.392;-6.248;2022-08-19T06:17:37;5.75;;;1.02;;
43706;SDS011;61348;53.392;-6.248;2022-08-19T06:20:05;11.57;;;1.65;;
43706;SDS011;61348;53.392;-6.248;2022-08-19T06:22:38;7.60;;;1.45;;
43706;SDS011;61348;53.392;-6.248;2022-08-19T06:25:06;5.32;;;1.27;;
43706;SDS011;61348;53.392;-6.248;2022-08-19T06:27:36;8.35;;;2.08;;
43706;SDS011;61348;53.392;-6.248;2022-08-19T06:30:23;7.75;;;1.63;;
43706;SDS011;61348;53.392;-6.248;2022-08-19T06:32:50;7.93;;;1.35;;
43706;SDS011;61348;53.392;-6.248;2022-08-19T06:35:18;7.80;;;1.42;;
43706;SDS011;61348;53.392;-6.248;2022-08-19T06:37:45;12.10;;;1.83;;
43706;SDS011;61348;53.392;-6.248;2022-08-19T06:40:12;5.82;;;1.83;;
43706;SDS011;61348;53.392;-6.248;2022-08-19T06:42:39;8.85;;;2.17;;
43706;SDS011;61348;53.392;-6.248;2022-08-19T06:45:20;10.52;;;1.60;;
43706;SDS011;61348;53.392;-6.248;2022-08-19T06:47:59;4.68;;;1.35;;
43706;SDS011;61348;53.392;-6.248;2022-08-19T06:50:28;7.78;;;1.60;;
43706;SDS011;61348;53.392;-6.248;2022-08-19T06:52:55;5.88;;;1.15;;
43706;SDS011;61348;53.392;-6.248;2022-08-19T06:55:29;7.60;;;1.13;;
43706;SDS011;61348;53.392;-6.248;2022-08-19T06:58:01;8.25;;;1.25;;
43706;SDS011;61348;53.392;-6.248;2022-08-19T07:00:30;7.87;;;1.43;;
43706;SDS011;61348;53.392;-6.248;2022-08-19T07:03:02;8.15;;;1.35;;
43706;SDS011;61348;53.392;-6.248;2022-08-19T07:05:43;7.28;;;1.20;;
43706;SDS011;61348;53.392;-6.248;2022-08-19T07:08:11;8.05;;;1.70;;
43706;SDS011;61348;53.392;-6.248;2022-08-19T07:10:42;8.80;;;1.20;;
43706;SDS011;61348;53.392;-6.248;2022-08-19T07:13:10;5.53;;;1.33;;
43706;SDS011;61348;53.392;-6.248;2022-08-19T07:15:37;11.32;;;1.42;;
43706;SDS011;61348;53.392;-6.248;2022-08-19T07:18:05;7.15;;;1.58;;
43706;SDS011;61348;53.392;-6.248;2022-08-19T07:20:32;4.70;;;1.10;;
43706;SDS011;61348;53.392;-6.248;2022-08-19T07:23:00;3.55;;;0.88;;
43706;SDS011;61348;53.392;-6.248;2022-08-19T07:25:32;4.55;;;1.13;;
43706;SDS011;61348;53.392;-6.248;2022-08-19T07:27:59;5.97;;;0.98;;
43706;SDS011;61348;53.392;-6.248;2022-08-19T07:30:26;7.80;;;1.20;;
43706;SDS011;61348;53.392;-6.248;2022-08-19T07:32:54;9.95;;;2.75;;
43706;SDS011;61348;53.392;-6.248;2022-08-19T07:35:23;3.90;;;1.35;;
43706;SDS011;61348;53.392;-6.248;2022-08-19T07:37:51;6.35;;;1.30;;
43706;SDS011;61348;53.392;-6.248;2022-08-19T07:40:19;7.20;;;1.42;;
43706;SDS011;61348;53.392;-6.248;2022-08-19T07:42:46;13.27;;;3.60;;
43706;SDS011;61348;53.392;-6.248;2022-08-19T07:45:13;7.28;;;1.35;;
43706;SDS011;61348;53.392;-6.248;2022-08-19T07:47:41;7.10;;;1.50;;
43706;SDS011;61348;53.392;-6.248;2022-08-19T07:50:16;2.60;;;1.08;;
43706;SDS011;61348;53.392;-6.248;2022-08-19T07:52:46;5.85;;;1.10;;
43706;SDS011;61348;53.392;-6.248;2022-08-19T07:55:17;5.05;;;1.20;;
43706;SDS011;61348;53.392;-6.248;2022-08-19T07:58:05;6.38;;;1.13;;
43706;SDS011;61348;53.392;-6.248;2022-08-19T08:00:32;8.63;;;1.25;;
43706;SDS011;61348;53.392;-6.248;2022-08-19T08:03:01;6.43;;;0.73;;
43706;SDS011;61348;53.392;-6.248;2022-08-19T08:05:27;3.17;;;1.00;;
43706;SDS011;61348;53.392;-6.248;2022-08-19T08:08:13;3.90;;;1.23;;
43706;SDS011;61348;53.392;-6.248;2022-08-19T08:11:14;1.83;;;1.02;;
43706;SDS011;61348;53.392;-6.248;2022-08-19T08:13:45;2.08;;;0.85;;
43706;SDS011;61348;53.392;-6.248;2022-08-19T08:16:30;6.95;;;2.00;;
43706;SDS011;61348;53.392;-6.248;2022-08-19T08:19:00;8.70;;;1.27;;
43706;SDS011;61348;53.392;-6.248;2022-08-19T08:21:27;9.40;;;1.10;;
43706;SDS011;61348;53.392;-6.248;2022-08-19T08:23:54;5.15;;;0.93;;
43706;SDS011;61348;53.392;-6.248;2022-08-19T08:26:22;6.70;;;1.20;;
43706;SDS011;61348;53.392;-6.248;2022-08-19T08:28:49;5.95;;;0.75;;
43706;SDS011;61348;53.392;-6.248;2022-08-19T08:31:16;8.63;;;1.35;;
43706;SDS011;61348;53.392;-6.248;2022-08-19T08:33:45;7.10;;;1.13;;
43706;SDS011;61348;53.392;-6.248;2022-08-19T08:36:13;5.80;;;1.35;;
43706;SDS011;61348;53.392;-6.248;2022-08-19T08:38:41;3.58;;;0.98;;
43706;SDS011;61348;53.392;-6.248;2022-08-19T08:41:17;5.25;;;1.15;;
43706;SDS011;61348;53.392;-6.248;2022-08-19T08:43:49;11.80;;;1.75;;
43706;SDS011;61348;53.392;-6.248;2022-08-19T08:46:26;6.95;;;1.08;;
43706;SDS011;61348;53.392;-6.248;2022-08-19T08:49:05;5.35;;;1.17;;
43706;SDS011;61348;53.392;-6.248;2022-08-19T08:51:37;4.93;;;1.15;;
43706;SDS011;61348;53.392;-6.248;2022-08-19T08:54:14;5.57;;;1.02;;
43706;SDS011;61348;53.392;-6.248;2022-08-19T08:56:44;4.85;;;0.90;;
43706;SDS011;61348;53.392;-6.248;2022-08-19T09:02:07;2.50;;;0.93;;
43706;SDS011;61348;53.392;-6.248;2022-08-19T09:04:34;6.88;;;1.65;;
43706;SDS011;61348;53.392;-6.248;2022-08-19T09:07:09;4.38;;;0.80;;
43706;SDS011;61348;53.392;-6.248;2022-08-19T09:10:04;8.60;;;0.82;;
43706;SDS011;61348;53.392;-6.248;2022-08-19T09:16:00;4.90;;;1.13;;
43706;SDS011;61348;53.392;-6.248;2022-08-19T09:18:43;2.67;;;0.70;;
43706;SDS011;61348;53.392;-6.248;2022-08-19T09:21:15;3.58;;;0.70;;
43706;SDS011;61348;53.392;-6.248;2022-08-19T09:23:42;2.85;;;0.60;;
43706;SDS011;61348;53.392;-6.248;2022-08-19T09:26:10;2.63;;;0.57;;
43706;SDS011;61348;53.392;-6.248;2022-08-19T09:28:42;3.70;;;0.77;;
43706;SDS011;61348;53.392;-6.248;2022-08-19T09:31:15;5.82;;;0.80;;
43706;SDS011;61348;53.392;-6.248;2022-08-19T09:33:44;2.80;;;0.68;;
43706;SDS011;61348;53.392;-6.248;2022-08-19T09:36:13;5.90;;;0.93;;
43706;SDS011;61348;53.392;-6.248;2022-08-19T09:38:59;4.80;;;0.85;;
43706;SDS011;61348;53.392;-6.248;2022-08-19T09:41:27;2.17;;;0.70;;
43706;SDS011;61348;53.392;-6.248;2022-08-19T09:43:56;5.18;;;1.13;;
43706;SDS011;61348;53.392;-6.248;2022-08-19T09:46:26;5.07;;;0.82;;
43706;SDS011;61348;53.392;-6.248;2022-08-19T09:48:56;5.55;;;0.85;;
43706;SDS011;61348;53.392;-6.248;2022-08-19T09:51:32;6.38;;;1.17;;
43706;SDS011;61348;53.392;-6.248;2022-08-19T09:54:03;3.10;;;0.77;;
43706;SDS011;61348;53.392;-6.248;2022-08-19T09:56:33;9.45;;;1.75;;
43706;SDS011;61348;53.392;-6.248;2022-08-19T09:59:01;4.40;;;0.98;;
43706;SDS011;61348;53.392;-6.248;2022-08-19T10:01:30;5.28;;;1.80;;
43706;SDS011;61348;53.392;-6.248;2022-08-19T10:03:59;5.22;;;0.90;;
43706;SDS011;61348;53.392;-6.248;2022-08-19T10:06:40;8.65;;;1.38;;
43706;SDS011;61348;53.392;-6.248;2022-08-19T10:09:12;6.20;;;1.40;;
43706;SDS011;61348;53.392;-6.248;2022-08-19T10:11:41;4.72;;;1.23;;
43706;SDS011;61348;53.392;-6.248;2022-08-19T10:14:19;8.13;;;1.25;;
43706;SDS011;61348;53.392;-6.248;2022-08-19T10:16:48;4.60;;;1.02;;
43706;SDS011;61348;53.392;-6.248;2022-08-19T10:19:18;11.38;;;1.65;;
43706;SDS011;61348;53.392;-6.248;2022-08-19T10:21:51;6.32;;;1.30;;
43706;SDS011;61348;53.392;-6.248;2022-08-19T10:24:20;4.75;;;1.35;;
43706;SDS011;61348;53.392;-6.248;2022-08-19T10:26:50;6.82;;;0.82;;
43706;SDS011;61348;53.392;-6.248;2022-08-19T10:29:24;2.63;;;0.80;;
43706;SDS011;61348;53.392;-6.248;2022-08-19T10:32:01;6.32;;;1.05;;
43706;SDS011;61348;53.392;-6.248;2022-08-19T10:34:35;3.90;;;1.55;;
43706;SDS011;61348;53.392;-6.248;2022-08-19T10:37:14;4.28;;;1.65;;
43706;SDS011;61348;53.392;-6.248;2022-08-19T10:39:49;5.00;;;1.70;;
43706;SDS011;61348;53.392;-6.248;2022-08-19T10:42:17;5.35;;;0.77;;
43706;SDS011;61348;53.392;-6.248;2022-08-19T10:44:45;4.22;;;0.68;;
43706;SDS011;61348;53.392;-6.248;2022-08-19T10:47:17;4.15;;;0.57;;
43706;SDS011;61348;53.392;-6.248;2022-08-19T10:49:52;3.03;;;0.45;;
43706;SDS011;61348;53.392;-6.248;2022-08-19T10:52:40;5.28;;;0.98;;
43706;SDS011;61348;53.392;-6.248;2022-08-19T10:55:15;2.58;;;0.80;;
43706;SDS011;61348;53.392;-6.248;2022-08-19T10:58:12;6.80;;;1.33;;
43706;SDS011;61348;53.392;-6.248;2022-08-19T11:00:41;7.60;;;1.50;;
43706;SDS011;61348;53.392;-6.248;2022-08-19T11:03:11;7.25;;;2.65;;
43706;SDS011;61348;53.392;-6.248;2022-08-19T11:05:38;8.20;;;1.70;;
43706;SDS011;61348;53.392;-6.248;2022-08-19T11:08:08;9.05;;;1.42;;
43706;SDS011;61348;53.392;-6.248;2022-08-19T11:10:48;8.05;;;1.55;;
43706;SDS011;61348;53.392;-6.248;2022-08-19T11:13:15;6.45;;;1.65;;
43706;SDS011;61348;53.392;-6.248;2022-08-19T11:15:42;5.03;;;1.20;;
43706;SDS011;61348;53.392;-6.248;2022-08-19T11:18:11;5.90;;;1.20;;
43706;SDS011;61348;53.392;-6.248;2022-08-19T11:20:38;7.97;;;2.13;;
43706;SDS011;61348;53.392;-6.248;2022-08-19T11:23:05;8.88;;;1.55;;
43706;SDS011;61348;53.392;-6.248;2022-08-19T11:25:32;7.63;;;1.65;;
43706;SDS011;61348;53.392;-6.248;2022-08-19T11:28:00;6.75;;;1.50;;
43706;SDS011;61348;53.392;-6.248;2022-08-19T11:30:27;6.10;;;1.33;;
43706;SDS011;61348;53.392;-6.248;2022-08-19T11:32:54;11.70;;;1.80;;
43706;SDS011;61348;53.392;-6.248;2022-08-19T11:35:22;9.32;;;2.67;;
43706;SDS011;61348;53.392;-6.248;2022-08-19T11:37:49;4.95;;;1.20;;
43706;SDS011;61348;53.392;-6.248;2022-08-19T11:40:16;6.00;;;1.48;;
43706;SDS011;61348;53.392;-6.248;2022-08-19T11:42:43;8.07;;;1.15;;
43706;SDS011;61348;53.392;-6.248;2022-08-19T11:45:23;7.18;;;1.33;;
43706;SDS011;61348;53.392;-6.248;2022-08-19T11:47:52;3.95;;;1.67;;
43706;SDS011;61348;53.392;-6.248;2022-08-19T11:50:20;3.45;;;1.52;;
43706;SDS011;61348;53.392;-6.248;2022-08-19T11:52:47;7.43;;;1.20;;
43706;SDS011;61348;53.392;-6.248;2022-08-19T11:55:15;7.22;;;2.05;;
43706;SDS011;61348;53.392;-6.248;2022-08-19T11:57:42;4.47;;;1.17;;
43706;SDS011;61348;53.392;-6.248;2022-08-19T12:00:10;8.48;;;2.35;;
43706;SDS011;61348;53.392;-6.248;2022-08-19T12:02:39;3.78;;;0.98;;
43706;SDS011;61348;53.392;-6.248;2022-08-19T12:05:07;5.40;;;1.50;;
43706;SDS011;61348;53.392;-6.248;2022-08-19T12:07:38;2.85;;;1.13;;
43706;SDS011;61348;53.392;-6.248;2022-08-19T12:10:06;4.47;;;1.27;;
43706;SDS011;61348;53.392;-6.248;2022-08-19T12:12:33;4.57;;;1.83;;
43706;SDS011;61348;53.392;-6.248;2022-08-19T12:15:00;6.82;;;1.90;;
43706;SDS011;61348;53.392;-6.248;2022-08-19T12:17:28;8.90;;;1.40;;
43706;SDS011;61348;53.392;-6.248;2022-08-19T12:19:57;6.10;;;1.35;;
43706;SDS011;61348;53.392;-6.248;2022-08-19T12:22:24;5.28;;;1.30;;
43706;SDS011;61348;53.392;-6.248;2022-08-19T12:24:51;4.18;;;1.30;;
43706;SDS011;61348;53.392;-6.248;2022-08-19T12:27:19;6.53;;;1.38;;
43706;SDS011;61348;53.392;-6.248;2022-08-19T12:30:09;5.65;;;1.75;;
43706;SDS011;61348;53.392;-6.248;2022-08-19T12:32:38;7.38;;;2.05;;
43706;SDS011;61348;53.392;-6.248;2022-08-19T12:35:05;11.82;;;2.88;;
43706;SDS011;61348;53.392;-6.248;2022-08-19T12:37:33;8.98;;;1.90;;
43706;SDS011;61348;53.392;-6.248;2022-08-19T12:40:00;9.18;;;1.80;;
43706;SDS011;61348;53.392;-6.248;2022-08-19T12:42:29;5.85;;;1.55;;
43706;SDS011;61348;53.392;-6.248;2022-08-19T12:44:56;6.93;;;1.60;;
43706;SDS011;61348;53.392;-6.248;2022-08-19T12:47:23;8.32;;;1.30;;
43706;SDS011;61348;53.392;-6.248;2022-08-19T12:49:52;6.97;;;2.97;;
43706;SDS011;61348;53.392;-6.248;2022-08-19T12:52:22;5.82;;;1.60;;
43706;SDS011;61348;53.392;-6.248;2022-08-19T12:54:51;6.57;;;2.03;;
43706;SDS011;61348;53.392;-6.248;2022-08-19T12:57:21;5.22;;;1.88;;
43706;SDS011;61348;53.392;-6.248;2022-08-19T13:02:38;4.90;;;1.50;;
43706;SDS011;61348;53.392;-6.248;2022-08-19T13:05:09;7.37;;;1.70;;
43706;SDS011;61348;53.392;-6.248;2022-08-19T13:07:41;5.40;;;1.58;;
43706;SDS011;61348;53.392;-6.248;2022-08-19T13:10:14;5.07;;;1.45;;
43706;SDS011;61348;53.392;-6.248;2022-08-19T13:12:43;8.32;;;1.40;;
43706;SDS011;61348;53.392;-6.248;2022-08-19T13:15:13;8.32;;;2.08;;
43706;SDS011;61348;53.392;-6.248;2022-08-19T13:17:44;4.20;;;1.42;;
43706;SDS011;61348;53.392;-6.248;2022-08-19T13:20:11;9.00;;;2.00;;
43706;SDS011;61348;53.392;-6.248;2022-08-19T13:22:40;6.47;;;1.65;;
43706;SDS011;61348;53.392;-6.248;2022-08-19T13:25:07;6.53;;;1.95;;
43706;SDS011;61348;53.392;-6.248;2022-08-19T13:27:35;4.97;;;2.17;;
43706;SDS011;61348;53.392;-6.248;2022-08-19T13:30:03;9.65;;;2.25;;
43706;SDS011;61348;53.392;-6.248;2022-08-19T13:32:50;7.93;;;2.03;;
43706;SDS011;61348;53.392;-6.248;2022-08-19T13:35:36;4.65;;;1.98;;
43706;SDS011;61348;53.392;-6.248;2022-08-19T13:38:05;8.80;;;2.05;;
43706;SDS011;61348;53.392;-6.248;2022-08-19T13:40:39;20.02;;;2.60;;
43706;SDS011;61348;53.392;-6.248;2022-08-19T13:43:07;3.03;;;1.35;;
43706;SDS011;61348;53.392;-6.248;2022-08-19T13:45:51;7.50;;;1.88;;
43706;SDS011;61348;53.392;-6.248;2022-08-19T13:48:24;7.70;;;1.67;;
43706;SDS011;61348;53.392;-6.248;2022-08-19T13:50:53;8.00;;;2.97;;
43706;SDS011;61348;53.392;-6.248;2022-08-19T13:53:20;6.40;;;2.03;;
43706;SDS011;61348;53.392;-6.248;2022-08-19T13:55:47;6.53;;;1.77;;
43706;SDS011;61348;53.392;-6.248;2022-08-19T13:58:16;3.78;;;1.27;;
43706;SDS011;61348;53.392;-6.248;2022-08-19T14:00:43;5.68;;;2.08;;
43706;SDS011;61348;53.392;-6.248;2022-08-19T14:03:12;5.03;;;1.60;;
43706;SDS011;61348;53.392;-6.248;2022-08-19T14:05:39;7.43;;;1.65;;
43706;SDS011;61348;53.392;-6.248;2022-08-19T14:08:06;7.35;;;2.13;;
43706;SDS011;61348;53.392;-6.248;2022-08-19T14:10:34;4.25;;;1.33;;
43706;SDS011;61348;53.392;-6.248;2022-08-19T14:13:02;5.45;;;1.25;;
43706;SDS011;61348;53.392;-6.248;2022-08-19T14:15:30;3.90;;;1.67;;
43706;SDS011;61348;53.392;-6.248;2022-08-19T14:17:58;7.13;;;1.20;;
43706;SDS011;61348;53.392;-6.248;2022-08-19T14:20:25;6.15;;;1.48;;
43706;SDS011;61348;53.392;-6.248;2022-08-19T14:22:52;4.90;;;1.10;;
43706;SDS011;61348;53.392;-6.248;2022-08-19T14:25:22;7.13;;;1.40;;
43706;SDS011;61348;53.392;-6.248;2022-08-19T14:27:52;4.53;;;1.50;;
43706;SDS011;61348;53.392;-6.248;2022-08-19T14:30:22;4.80;;;1.23;;
43706;SDS011;61348;53.392;-6.248;2022-08-19T14:32:53;3.42;;;1.02;;
43706;SDS011;61348;53.392;-6.248;2022-08-19T14:35:21;3.00;;;0.77;;
43706;SDS011;61348;53.392;-6.248;2022-08-19T14:37:48;5.45;;;1.40;;
43706;SDS011;61348;53.392;-6.248;2022-08-19T14:40:17;7.35;;;1.05;;
43706;SDS011;61348;53.392;-6.248;2022-08-19T14:42:48;9.15;;;1.80;;
43706;SDS011;61348;53.392;-6.248;2022-08-19T14:45:15;5.35;;;1.23;;
43706;SDS011;61348;53.392;-6.248;2022-08-19T14:47:43;3.58;;;0.88;;
43706;SDS011;61348;53.392;-6.248;2022-08-19T14:50:11;3.75;;;1.38;;
43706;SDS011;61348;53.392;-6.248;2022-08-19T14:52:45;5.03;;;0.98;;
43706;SDS011;61348;53.392;-6.248;2022-08-19T14:55:16;6.50;;;1.30;;